WetterOnline ( https://www.wetteronline.de )

Wetter aktuell Delfzijl

Aktuelles Wetter: Emden (5m)

6-stündlich | Neueste Meldungen
Ortszeit Temperatur Wetter
So, 01.11. 1:00 12.4° C wolkig
Sa, 31.10. 19:00 12.5° C bedeckt
Sa, 31.10. 13:00 13.2° C Sprühregen
Sa, 31.10. 7:00 13.7° C Sprühregen
Sa, 31.10. 1:00 14.4° C bedeckt
Fr, 30.10. 19:00 13.9° C Sprühregen
Fr, 30.10. 13:00 14.1° C Sprühregen
Fr, 30.10. 7:00 13.9° C bedeckt
Ortszeit Temperatur Wetter
So, 01.11. 2:30 10.6° C leicht bewölkt
So, 01.11. 2:20 10.6° C leicht bewölkt
So, 01.11. 2:10 10.8° C leicht bewölkt
So, 01.11. 2:00 11.3° C wolkig
So, 01.11. 1:50 11.3° C wolkig
So, 01.11. 1:40 11.5° C wolkig
So, 01.11. 1:30 11.9° C wolkig
So, 01.11. 1:00 12.4° C wolkig
So, 01.11. 0:30 12.6° C wolkig
So, 01.11. 0:00 13.1° C fast wolkenlos
Sa, 31.10. 23:30 13.1° C wolkig
Ortszeit Relative Feuchte Sichtweite
So, 01.11. 1:00 86% 30 km
Sa, 31.10. 19:00 90% 55 km
Sa, 31.10. 13:00 93% 12 km
Sa, 31.10. 7:00 99% 3.6 km
Sa, 31.10. 1:00 96% 12 km
Fr, 30.10. 19:00 97% 2.9 km
Fr, 30.10. 13:00 96% 3.1 km
Fr, 30.10. 7:00 89% 21 km
Ortszeit Relative Feuchte Sichtweite
So, 01.11. 2:30 86% -
So, 01.11. 2:20 86% -
So, 01.11. 2:10 86% -
So, 01.11. 2:00 85% 24 km
So, 01.11. 1:50 85% -
So, 01.11. 1:40 85% -
So, 01.11. 1:30 85% 26 km
So, 01.11. 1:00 86% 30 km
So, 01.11. 0:30 87% 35 km
So, 01.11. 0:00 87% 40 km
Sa, 31.10. 23:30 92% 35 km
Ortszeit Niederschlagsmenge Niederschlagsart
So, 01.11. 1:00 1 l/m2 in 6 Std. Regen
Sa, 31.10. 19:00 0.3 l/m2 in 12 Std. Regen
Sa, 31.10. 13:00 0.2 l/m2 in 6 Std. Regen
Sa, 31.10. 7:00 2 l/m2 in 12 Std. Regen
Sa, 31.10. 1:00 2 l/m2 in 6 Std. Regen
Fr, 30.10. 19:00 6 l/m2 in 12 Std. Regen
Fr, 30.10. 13:00 3 l/m2 in 6 Std. Regen
Fr, 30.10. 7:00 9 l/m2 in 12 Std. Regen
Ortszeit Niederschlagsmenge Niederschlagsart
So, 01.11. 2:30 0.0 l/m2 in 1 Std. -
So, 01.11. 2:20 keine Meldung -
So, 01.11. 2:10 keine Meldung -
So, 01.11. 2:00 0.0 l/m2 in 1 Std. -
So, 01.11. 1:50 keine Meldung -
So, 01.11. 1:40 keine Meldung -
So, 01.11. 1:30 0.0 l/m2 in 1 Std. -
So, 01.11. 1:00 0.0 l/m2 in 1 Std. Regen
So, 01.11. 0:30 0.0 l/m2 in 1 Std. -
So, 01.11. 0:00 0.1 l/m2 in 1 Std. -
Sa, 31.10. 23:30 0.1 l/m2 in 1 Std. -
Ortszeit Stärke Spitze Richtung
km/h Bft. km/h Grad Sektor
So, 01.11. 1:00 13 3 39 230° SW
Sa, 31.10. 19:00 22 4 36 150° SO
Sa, 31.10. 13:00 17 3 28 200° S
Sa, 31.10. 7:00 11 2 22 190° S
Sa, 31.10. 1:00 11 2 26 230° SW
Fr, 30.10. 19:00 13 3 35 240° SW
Fr, 30.10. 13:00 14 3 40 250° W
Fr, 30.10. 7:00 17 3 44 240° SW
Ortszeit Stärke Spitze Richtung
km/h Bft. km/h Grad Sektor
So, 01.11. 2:30 11 2 19 210° SW
So, 01.11. 2:20 11 2 - 210° SW
So, 01.11. 2:10 11 2 - 220° SW
So, 01.11. 2:00 11 2 22 220° SW
So, 01.11. 1:50 11 2 - 220° SW
So, 01.11. 1:40 11 2 - 220° SW
So, 01.11. 1:30 11 2 22 220° SW
So, 01.11. 1:00 13 3 31 230° SW
So, 01.11. 0:30 13 3 26 220° SW
So, 01.11. 0:00 18 3 36 210° SW
Sa, 31.10. 23:30 20 4 35 200° S
Ortszeit Untergrenze Bedeckung Gattung
total tief tief mittel hoch
So, 01.11. 1:00 630 m 7/8 5/8 - - -
Sa, 31.10. 19:00 4800 m 8/8 8/8 - - -
Sa, 31.10. 13:00 300 m 8/8 8/8 - - -
Sa, 31.10. 7:00 60 m 8/8 8/8 - - -
Sa, 31.10. 1:00 240 m 8/8 8/8 - - -
Fr, 30.10. 19:00 180 m 7/8 7/8 - - -
Fr, 30.10. 13:00 240 m 7/8 7/8 - - -
Fr, 30.10. 7:00 450 m 8/8 8/8 - - -
Ortszeit Bedeckungsgrad in Achtel und Wolkenuntergrenze
So, 01.11. 2:30 1(1170m) 5(6600m) 6(9000m)
So, 01.11. 2:20 1(1170m) 5(6600m) 6(9000m)
So, 01.11. 2:10 1(1170m) 3(6600m) 6(9000m)
So, 01.11. 2:00 6(9000m) 7(10500m)
So, 01.11. 1:50 6(9000m) 7(10500m)
So, 01.11. 1:40 4(9000m) 7(10500m)
So, 01.11. 1:30 2(750m) 8(10500m)
So, 01.11. 1:00 5(630m) 7(9000m) 7(10500m)
So, 01.11. 0:30 5(8400m) 8(9000m)
So, 01.11. 0:00 2(9000m)
Sa, 31.10. 23:30 1(330m) 5(720m) 5(2700m)
Ortszeit Luftdruck NN (hPa) Tendenz (hPa in 3 Std.)
So, 01.11. 1:00 1012 + 1,1
Sa, 31.10. 19:00 1012 - 2,2
Sa, 31.10. 13:00 1017 - 2,2
Sa, 31.10. 7:00 1020 - 0,3
Sa, 31.10. 1:00 1020 + 1,0
Fr, 30.10. 19:00 1017 + 1,5
Fr, 30.10. 13:00 1014 + 1,6
Fr, 30.10. 7:00 1011 + 0,6
Ortszeit Luftdruck NN (hPa) Tendenz (hPa in 3 Std.)
So, 01.11. 2:30 1012 + 1,2
So, 01.11. 2:20 1012 keine Meldung
So, 01.11. 2:10 1012 keine Meldung
So, 01.11. 2:00 1012 + 1,3
So, 01.11. 1:50 1012 keine Meldung
So, 01.11. 1:40 1012 keine Meldung
So, 01.11. 1:30 1012 + 0,9
So, 01.11. 1:00 1012 + 1,1
So, 01.11. 0:30 1011 + 0,7
So, 01.11. 0:00 1011 + 0,4
Sa, 31.10. 23:30 1011 - 0,3
Ortszeit Schneehöhe (cm)
So, 01.11. 1:00 0
Sa, 31.10. 19:00 0
Sa, 31.10. 13:00 0
Sa, 31.10. 7:00 0
Sa, 31.10. 1:00 0
Fr, 30.10. 19:00 0
Fr, 30.10. 13:00 0
Fr, 30.10. 7:00 0
Ortszeit Schneehöhe (cm)
So, 01.11. 2:30 0
So, 01.11. 2:20 0
So, 01.11. 2:10 0
So, 01.11. 2:00 0
So, 01.11. 1:50 0
So, 01.11. 1:40 0
So, 01.11. 1:30 0
So, 01.11. 1:00 0
So, 01.11. 0:30 0
So, 01.11. 0:00 0
Sa, 31.10. 23:30 0
Link zu dieser Seite / Seite empfehlen

Das Wetter in ...